createdAt,value
2023-03-06T00:04:24.909Z,4.93
2023-03-06T00:09:27.252Z,3.53
2023-03-06T00:14:29.345Z,2.60
2023-03-06T00:19:32.895Z,3.33
2023-03-06T00:24:35.175Z,3.53
2023-03-06T00:29:37.209Z,4.43
2023-03-06T00:34:40.923Z,4.47
2023-03-06T00:39:43.007Z,4.40
2023-03-06T00:44:45.372Z,5.17
2023-03-06T00:49:48.764Z,6.03
2023-03-06T00:54:50.948Z,5.63
2023-03-06T00:59:53.139Z,6.13
2023-03-06T01:04:56.636Z,7.87
2023-03-06T01:09:58.931Z,9.27
2023-03-06T01:15:00.851Z,6.47
2023-03-06T01:20:05.527Z,5.70
2023-03-06T01:25:07.859Z,9.33
2023-03-06T01:30:11.138Z,6.00
2023-03-06T01:35:15.411Z,7.23
2023-03-06T01:40:17.502Z,7.90
2023-03-06T01:45:57.086Z,6.53
2023-03-06T01:51:00.867Z,9.40
2023-03-06T01:56:03.410Z,8.33
2023-03-06T02:01:05.888Z,8.90
2023-03-06T02:06:10.026Z,8.27
2023-03-06T02:11:15.578Z,6.23
2023-03-06T02:16:20.371Z,11.17
2023-03-06T02:21:28.880Z,10.30
2023-03-06T02:26:34.767Z,8.47
2023-03-06T02:31:36.998Z,6.27
2023-03-06T02:36:44.576Z,9.03
2023-03-06T02:41:48.462Z,9.30
2023-03-06T02:46:50.648Z,9.57
2023-03-06T02:51:53.016Z,7.17
2023-03-06T02:56:56.575Z,4.70
2023-03-06T03:01:58.785Z,9.97
2023-03-06T03:07:00.849Z,6.57
2023-03-06T03:12:06.272Z,5.27
2023-03-06T03:17:08.678Z,7.07
2023-03-06T03:22:10.735Z,4.00
2023-03-06T03:27:14.792Z,6.20
2023-03-06T03:32:17.076Z,4.97
2023-03-06T03:37:19.346Z,5.13
2023-03-06T03:42:22.783Z,3.40
2023-03-06T03:47:27.160Z,6.67
2023-03-06T03:52:29.372Z,5.27
2023-03-06T03:57:32.910Z,4.17
2023-03-06T04:02:34.964Z,4.53
2023-03-06T04:07:36.936Z,5.40
2023-03-06T04:12:40.636Z,5.77
2023-03-06T04:17:42.929Z,6.70
2023-03-06T04:22:44.679Z,5.60
2023-03-06T04:27:48.181Z,3.33
2023-03-06T04:32:50.456Z,4.73
2023-03-06T04:37:52.659Z,3.50
2023-03-06T04:42:56.276Z,1.57
2023-03-06T04:47:58.918Z,1.53
2023-03-06T04:53:02.118Z,1.33
2023-03-06T04:58:05.825Z,1.20
2023-03-06T05:03:09.024Z,1.47
2023-03-06T05:08:13.974Z,1.23
2023-03-06T05:13:20.678Z,0.93
2023-03-06T05:18:22.826Z,1.00
2023-03-06T05:23:25.073Z,0.97
2023-03-06T05:28:28.645Z,0.67
2023-03-06T05:33:31.693Z,1.67
2023-03-06T05:38:33.837Z,1.30
2023-03-06T05:43:37.311Z,1.17
2023-03-06T05:48:39.491Z,1.20
2023-03-06T05:53:41.613Z,2.37
2023-03-06T05:58:44.819Z,1.20
2023-03-06T06:03:47.441Z,2.07
2023-03-06T06:08:49.800Z,1.40
2023-03-06T06:13:56.828Z,1.60
2023-03-06T06:18:58.569Z,1.60
2023-03-06T06:24:00.961Z,1.37
2023-03-06T06:29:05.172Z,1.60
2023-03-06T06:34:08.273Z,1.90
2023-03-06T06:39:13.753Z,1.27
2023-03-06T06:44:18.005Z,1.47
2023-03-06T06:49:20.206Z,1.47
2023-03-06T06:54:22.047Z,1.20
2023-03-06T06:59:25.219Z,1.70
2023-03-06T07:04:29.238Z,1.83
2023-03-06T07:09:31.451Z,1.70
2023-03-06T07:14:36.231Z,1.90
2023-03-06T07:19:39.326Z,0.73
2023-03-06T07:24:41.698Z,0.70
2023-03-06T07:29:45.459Z,0.83
2023-03-06T07:34:48.242Z,1.43
2023-03-06T07:39:50.613Z,1.00
2023-03-06T07:44:54.420Z,2.40
2023-03-06T07:49:56.427Z,1.47
2023-03-06T07:55:00.463Z,2.30
2023-03-06T08:00:04.461Z,1.20
2023-03-06T08:05:08.470Z,1.40
2023-03-06T08:10:13.375Z,0.87
2023-03-06T08:15:17.345Z,2.13
2023-03-06T08:20:19.841Z,0.87
2023-03-06T08:25:21.976Z,1.20
2023-03-06T08:30:25.292Z,2.53
2023-03-06T08:35:27.485Z,0.73
2023-03-06T08:40:29.730Z,1.90
2023-03-06T08:45:32.968Z,1.23
2023-03-06T08:50:34.984Z,0.73
2023-03-06T08:55:37.229Z,1.00
2023-03-06T09:00:40.779Z,0.70
2023-03-06T09:05:43.370Z,2.77
2023-03-06T09:10:46.792Z,1.07
2023-03-06T09:15:51.581Z,0.67
2023-03-06T09:20:53.868Z,1.47
2023-03-06T09:25:58.233Z,0.67
2023-03-06T09:31:01.853Z,0.87
2023-03-06T09:36:04.745Z,3.70
2023-03-06T09:41:12.399Z,0.80
2023-03-06T09:46:23.309Z,0.40
2023-03-06T09:51:36.673Z,2.00
2023-03-06T09:56:39.152Z,0.47
2023-03-06T10:01:45.994Z,0.80
2023-03-06T10:06:50.606Z,0.60
2023-03-06T10:11:57.129Z,0.37
2023-03-06T10:17:05.232Z,2.43
2023-03-06T10:22:19.840Z,0.57
2023-03-06T10:27:39.247Z,2.47
2023-03-06T10:32:50.563Z,1.13
2023-03-06T10:38:00.400Z,0.87
2023-03-06T10:43:11.342Z,0.73
2023-03-06T10:48:20.376Z,1.57
2023-03-06T10:53:25.291Z,0.37
2023-03-06T10:58:29.030Z,0.57
2023-03-06T11:03:33.129Z,0.20
2023-03-06T11:08:36.214Z,1.70
2023-03-06T11:13:41.153Z,3.07
2023-03-06T11:18:56.241Z,2.93
2023-03-06T11:24:03.112Z,3.60
2023-03-06T11:29:29.395Z,0.63
2023-03-06T11:34:40.929Z,0.70
2023-03-06T11:39:49.124Z,4.73
2023-03-06T11:45:02.891Z,1.13
2023-03-06T11:50:17.857Z,0.77
2023-03-06T11:55:30.539Z,3.30
2023-03-06T12:00:48.080Z,8.40
2023-03-06T12:06:01.062Z,0.53
2023-03-06T12:11:12.522Z,1.37
2023-03-06T12:16:35.079Z,2.10
2023-03-06T12:21:48.489Z,2.60
2023-03-06T12:27:02.665Z,1.93
2023-03-06T12:32:14.982Z,1.57
2023-03-06T12:37:31.603Z,2.63
2023-03-06T12:43:02.233Z,1.57
2023-03-06T12:48:11.460Z,0.97
2023-03-06T12:53:25.024Z,0.97
2023-03-06T12:58:36.309Z,0.40
2023-03-06T13:03:58.758Z,1.33
2023-03-06T13:09:18.079Z,0.83
2023-03-06T13:14:23.773Z,2.30
2023-03-06T13:19:26.398Z,0.80
2023-03-06T13:24:35.469Z,1.17
2023-03-06T13:30:05.456Z,1.57
2023-03-06T13:35:47.350Z,1.00
2023-03-06T13:40:51.184Z,1.20
2023-03-06T13:45:53.211Z,0.60
2023-03-06T13:50:55.239Z,3.20
2023-03-06T13:56:16.648Z,0.50
2023-03-06T14:01:28.372Z,2.83
2023-03-06T14:06:50.719Z,0.53
2023-03-06T14:11:57.715Z,0.70
2023-03-06T14:17:06.381Z,0.33
2023-03-06T14:22:16.537Z,0.93
2023-03-06T14:27:20.330Z,0.80
2023-03-06T14:32:23.063Z,1.10
2023-03-06T14:37:25.540Z,2.43
2023-03-06T14:42:29.719Z,0.97
2023-03-06T14:47:34.830Z,4.87
2023-03-06T14:52:37.867Z,0.50
2023-03-06T14:57:41.545Z,1.30
2023-03-06T15:02:45.577Z,3.43
2023-03-06T15:07:48.512Z,0.53
2023-03-06T15:12:52.043Z,1.10
2023-03-06T15:17:54.198Z,0.70
2023-03-06T15:22:56.324Z,0.67
2023-03-06T15:28:02.143Z,1.27
2023-03-06T15:33:20.305Z,0.77
2023-03-06T15:38:36.894Z,0.60
2023-03-06T15:43:40.747Z,1.80
2023-03-06T15:48:52.720Z,2.53
2023-03-06T15:53:57.232Z,2.10
2023-03-06T15:59:16.497Z,1.43
2023-03-06T16:04:19.185Z,1.47
2023-03-06T16:09:21.310Z,2.90
2023-03-06T16:14:43.746Z,1.83
2023-03-06T16:19:45.637Z,1.60
2023-03-06T16:24:47.905Z,2.50
2023-03-06T16:29:51.692Z,4.03
2023-03-06T16:34:53.881Z,5.50
2023-03-06T16:39:55.987Z,3.90
2023-03-06T16:44:59.215Z,4.90
2023-03-06T16:50:01.408Z,3.50
2023-03-06T16:55:04.002Z,2.60
2023-03-06T17:00:08.764Z,3.13
2023-03-06T17:05:12.366Z,3.43
2023-03-06T17:10:16.490Z,5.73
2023-03-06T17:15:20.378Z,6.83
2023-03-06T17:20:22.435Z,7.50
2023-03-06T17:25:24.825Z,9.00
2023-03-06T17:30:28.477Z,7.80
2023-03-06T17:35:30.599Z,6.33
2023-03-06T17:40:33.995Z,4.93
2023-03-06T17:45:37.138Z,8.83
2023-03-06T17:50:39.330Z,3.23
2023-03-06T17:55:41.408Z,3.93
2023-03-06T18:00:45.153Z,13.40
2023-03-06T18:05:47.284Z,4.57
2023-03-06T18:10:49.668Z,6.77
2023-03-06T18:15:52.780Z,7.57
2023-03-06T18:20:55.040Z,5.17
2023-03-06T18:26:08.260Z,5.70
2023-03-06T18:31:17.416Z,7.57
2023-03-06T18:36:19.491Z,6.77
2023-03-06T18:41:22.702Z,5.30
2023-03-06T18:46:29.285Z,8.17
2023-03-06T18:51:31.425Z,6.57
2023-03-06T18:56:34.296Z,6.77
2023-03-06T19:01:37.745Z,6.40
2023-03-06T19:06:40.397Z,10.13
2023-03-06T19:11:42.134Z,5.43
2023-03-06T19:16:45.234Z,9.10
2023-03-06T19:21:47.762Z,8.37
2023-03-06T19:26:50.117Z,6.87
2023-03-06T19:31:53.958Z,5.60
2023-03-06T19:36:55.816Z,14.30
2023-03-06T19:41:57.863Z,9.77
2023-03-06T19:47:01.524Z,10.53
2023-03-06T19:52:03.954Z,6.83
2023-03-06T19:57:06.029Z,6.80
2023-03-06T20:02:11.378Z,11.27
2023-03-06T20:07:13.607Z,9.03
2023-03-06T20:12:16.486Z,10.83
2023-03-06T20:17:19.902Z,7.03
2023-03-06T20:22:22.294Z,6.17
2023-03-06T20:27:24.106Z,5.20
2023-03-06T20:32:28.253Z,6.93
2023-03-06T20:37:33.477Z,9.13
2023-03-06T20:42:35.746Z,5.63
2023-03-06T20:47:39.516Z,6.33
2023-03-06T20:52:41.620Z,6.73
2023-03-06T20:57:43.996Z,7.37
2023-03-06T21:02:48.409Z,6.50
2023-03-06T21:07:53.015Z,6.43
2023-03-06T21:12:56.970Z,5.23
2023-03-06T21:18:02.051Z,3.80
2023-03-06T21:23:06.168Z,4.80
2023-03-06T21:28:11.052Z,5.33
2023-03-06T21:33:17.855Z,3.40
2023-03-06T21:38:24.205Z,3.53
2023-03-06T21:43:27.872Z,9.10
2023-03-06T21:48:33.404Z,3.57
2023-03-06T21:53:36.406Z,3.87
2023-03-06T21:58:39.587Z,3.03
2023-03-06T22:03:43.317Z,3.83
2023-03-06T22:08:45.607Z,5.57
2023-03-06T22:13:48.757Z,5.13
2023-03-06T22:18:52.380Z,4.47
2023-03-06T22:23:59.750Z,3.57
2023-03-06T22:29:01.874Z,3.83
2023-03-06T22:34:05.186Z,2.90
2023-03-06T22:39:07.289Z,4.77
2023-03-06T22:44:15.381Z,3.60
2023-03-06T22:49:21.849Z,4.37
2023-03-06T22:54:24.022Z,5.87
2023-03-06T22:59:26.258Z,5.37
2023-03-06T23:04:30.205Z,17.80
2023-03-06T23:09:32.468Z,11.67
2023-03-06T23:14:34.564Z,7.37
2023-03-06T23:19:38.018Z,7.67
2023-03-06T23:24:40.478Z,8.70
2023-03-06T23:29:42.610Z,11.80
2023-03-06T23:34:48.082Z,9.90
2023-03-06T23:39:50.148Z,9.97
2023-03-06T23:44:52.309Z,8.43
2023-03-06T23:49:58.708Z,11.30
2023-03-06T23:55:00.796Z,8.53
